Time;durP1;ratioP1;P1;durP2;ratioP2;P2;SDS_P1;SDS_P2;PMS_P1;PMS_P2;Temp;Humidity;BMP_temperature;BMP_pressure;BME280_temperature;BME280_humidity;BME280_pressure;Samples;Min_cycle;Max_cycle;Signal;HPM_P1;HPM_P2
2021/07/11 00:00:50;;;;;;;15.57;13.33;;;;;;;20.21;83.96;100661.18;1675029;84;21099;-71
2021/07/11 00:03:16;;;;;;;13.90;12.50;;;;;;;20.14;84.19;100656.23;1672884;84;21618;-70
2021/07/11 00:05:44;;;;;;;15.50;12.90;;;;;;;20.06;84.37;100655.09;1670027;84;21069;-71
2021/07/11 00:08:11;;;;;;;15.07;12.70;;;;;;;20.01;84.52;100649.05;1688642;83;21534;-72
2021/07/11 00:10:40;;;;;;;14.03;12.27;;;;;;;19.96;84.63;100650.55;1683134;83;21494;-70
2021/07/11 00:13:06;;;;;;;13.97;12.57;;;;;;;19.90;84.87;100653.40;1685279;83;21134;-70
2021/07/11 00:15:33;;;;;;;13.97;12.30;;;;;;;19.87;84.98;100655.41;1684257;83;21133;-70
2021/07/11 00:18:03;;;;;;;17.10;13.07;;;;;;;19.86;85.03;100656.52;1689498;83;21006;-70
2021/07/11 00:20:29;;;;;;;17.43;12.73;;;;;;;19.84;84.98;100656.05;1680072;83;21098;-70
2021/07/11 00:22:56;;;;;;;18.10;12.63;;;;;;;19.80;84.90;100655.06;1646962;85;21634;-72
2021/07/11 00:25:23;;;;;;;14.00;11.80;;;;;;;19.78;84.85;100651.89;1684687;83;21127;-70
2021/07/11 00:27:50;;;;;;;15.33;12.17;;;;;;;19.75;84.71;100655.23;1692259;83;21537;-71
2021/07/11 00:30:18;;;;;;;16.10;11.50;;;;;;;19.71;84.62;100646.14;1683565;83;21030;-71
2021/07/11 00:32:46;;;;;;;14.07;12.20;;;;;;;19.66;84.60;100647.07;1657239;85;21522;-70
2021/07/11 00:35:13;;;;;;;14.00;12.23;;;;;;;19.63;84.58;100650.94;1676974;84;21046;-72
2021/07/11 00:37:40;;;;;;;14.90;12.63;;;;;;;19.60;84.70;100655.63;1677230;84;21116;-72
2021/07/11 00:40:10;;;;;;;17.07;13.00;;;;;;;19.56;84.75;100645.98;1671817;84;21519;-71
2021/07/11 00:42:38;;;;;;;14.20;12.00;;;;;;;19.53;84.78;100647.97;1671553;84;21064;-71
2021/07/11 00:45:07;;;;;;;13.93;12.43;;;;;;;19.52;84.90;100641.52;1687462;82;21082;-72
2021/07/11 00:47:38;;;;;;;13.47;11.23;;;;;;;19.52;85.14;100643.67;1686173;83;21114;-72
2021/07/11 00:50:13;;;;;;;15.70;10.83;;;;;;;19.52;85.47;100642.88;1695589;83;21131;-71
2021/07/11 00:52:40;;;;;;;13.23;11.10;;;;;;;19.48;85.67;100645.42;1650927;85;21049;-72
2021/07/11 00:55:10;;;;;;;12.50;10.67;;;;;;;19.45;85.87;100641.98;1687992;83;21453;-72
2021/07/11 00:57:37;;;;;;;12.47;10.93;;;;;;;19.44;86.08;100637.66;1669099;84;21141;-71
2021/07/11 01:00:07;;;;;;;12.37;11.07;;;;;;;19.42;86.23;100642.61;1653818;85;21225;-71
2021/07/11 01:02:41;;;;;;;12.07;10.43;;;;;;;19.39;86.35;100645.94;1672630;83;21179;-70
2021/07/11 01:05:09;;;;;;;13.43;11.23;;;;;;;19.37;86.50;100645.45;1673178;83;21017;-71
2021/07/11 01:07:41;;;;;;;12.83;10.00;;;;;;;19.32;86.66;100640.98;1687713;83;21097;-72
2021/07/11 01:10:17;;;;;;;11.53;10.30;;;;;;;19.29;86.75;100642.95;1658681;85;21046;-71
2021/07/11 01:12:46;;;;;;;16.33;11.47;;;;;;;19.21;86.82;100645.06;1678908;83;21553;-71
2021/07/11 01:15:13;;;;;;;12.60;10.97;;;;;;;19.13;86.96;100641.78;1690952;83;21126;-72
2021/07/11 01:17:41;;;;;;;12.50;10.70;;;;;;;19.09;87.13;100632.69;1696437;83;21102;-72
2021/07/11 01:20:24;;;;;;;12.47;10.97;;;;;;;19.04;87.40;100636.87;1654929;85;21036;-71
2021/07/11 01:22:53;;;;;;;12.40;11.20;;;;;;;19.00;87.53;100639.97;1612221;87;21074;-71
2021/07/11 01:25:43;;;;;;;11.57;10.37;;;;;;;18.97;87.56;100638.12;1651512;85;21074;-71
2021/07/11 01:28:16;;;;;;;13.47;12.17;;;;;;;18.95;87.57;100634.94;1669390;84;21105;-72
2021/07/11 01:30:46;;;;;;;13.47;11.00;;;;;;;18.92;87.72;100638.27;1675349;84;21059;-72
2021/07/11 01:33:14;;;;;;;13.40;12.00;;;;;;;18.88;87.96;100642.68;1670253;84;21012;-72
2021/07/11 01:35:41;;;;;;;12.53;11.23;;;;;;;18.87;88.11;100641.66;1676321;84;21138;-72
2021/07/11 01:38:08;;;;;;;13.57;10.83;;;;;;;18.87;88.14;100638.39;1687827;83;21460;-72
2021/07/11 01:40:35;;;;;;;12.90;11.53;;;;;;;18.86;88.18;100642.21;1695180;83;21281;-72
2021/07/11 01:43:04;;;;;;;12.57;11.27;;;;;;;18.82;88.27;100638.53;1683023;83;21166;-72
2021/07/11 01:45:32;;;;;;;12.67;10.83;;;;;;;18.80;88.46;100638.03;1666284;84;21124;-73
2021/07/11 01:47:59;;;;;;;14.97;11.17;;;;;;;18.80;88.57;100635.33;1656510;85;21106;-72
2021/07/11 01:50:28;;;;;;;13.23;11.83;;;;;;;18.80;88.63;100642.66;1673775;84;20984;-74
2021/07/11 01:52:57;;;;;;;14.97;13.17;;;;;;;18.78;88.77;100644.86;1670658;84;21067;-73
2021/07/11 01:55:26;;;;;;;15.17;12.57;;;;;;;18.75;88.77;100636.80;1685672;83;21084;-72
2021/07/11 01:57:53;;;;;;;13.83;12.43;;;;;;;18.74;88.71;100636.56;1685589;83;21106;-72
2021/07/11 02:00:21;;;;;;;13.23;11.83;;;;;;;18.72;88.64;100636.89;1652007;85;21096;-72
2021/07/11 02:02:50;;;;;;;14.43;13.03;;;;;;;18.71;88.64;100637.15;1672588;84;21111;-73
2021/07/11 02:05:18;;;;;;;12.47;11.27;;;;;;;18.73;88.51;100637.68;1667308;84;21180;-73
2021/07/11 02:07:46;;;;;;;12.63;11.20;;;;;;;18.74;88.39;100638.70;1684754;85;21003;-73
2021/07/11 02:10:16;;;;;;;12.83;11.57;;;;;;;18.76;88.36;100639.77;1686186;83;21046;-72
2021/07/11 02:12:48;;;;;;;12.83;11.23;;;;;;;18.79;88.32;100643.21;1668958;83;21118;-74
2021/07/11 02:15:15;;;;;;;12.40;11.10;;;;;;;18.81;88.24;100647.73;1652391;85;21094;-73
2021/07/11 02:17:47;;;;;;;11.67;10.47;;;;;;;18.83;88.17;100648.80;1671576;82;21549;-72
2021/07/11 02:20:16;;;;;;;11.47;10.37;;;;;;;18.83;88.03;100644.19;1690336;82;21145;-72
2021/07/11 02:22:46;;;;;;;11.47;10.27;;;;;;;18.84;87.87;100655.24;1651837;85;21088;-73
2021/07/11 02:25:19;;;;;;;12.07;10.77;;;;;;;18.85;87.70;100653.33;1671511;85;21043;-72
2021/07/11 02:27:49;;;;;;;11.47;10.27;;;;;;;18.81;87.71;100650.45;1664570;84;21565;-71
2021/07/11 02:30:23;;;;;;;12.25;10.68;;;;;;;18.79;87.69;100649.16;1672752;84;21502;-73
2021/07/11 02:32:48;;;;;;;11.13;9.93;;;;;;;18.80;87.54;100664.30;1665013;84;21442;-73
2021/07/11 02:35:16;;;;;;;11.30;10.10;;;;;;;18.78;87.32;100659.18;1670308;84;21487;-73
2021/07/11 02:37:49;;;;;;;13.70;10.43;;;;;;;18.74;87.33;100656.30;1671818;84;21301;-71
2021/07/11 02:40:18;;;;;;;11.83;10.63;;;;;;;18.72;87.17;100658.53;1672512;85;21589;-72
2021/07/11 02:42:45;;;;;;;12.57;10.53;;;;;;;18.69;87.02;100658.30;1672025;84;21608;-72
2021/07/11 02:45:13;;;;;;;12.23;10.37;;;;;;;18.67;86.86;100657.27;1687188;83;21047;-72
2021/07/11 02:47:45;;;;;;;11.17;10.03;;;;;;;18.66;86.74;100658.94;1685270;83;21113;-72
2021/07/11 02:50:16;;;;;;;12.33;9.87;;;;;;;18.66;86.65;100659.73;1654532;85;21137;-73
2021/07/11 02:52:44;;;;;;;12.03;10.70;;;;;;;18.69;86.48;100661.83;1615971;85;21136;-73
2021/07/11 02:55:22;;;;;;;11.63;10.43;;;;;;;18.73;86.41;100660.68;1671622;85;21112;-72
2021/07/11 02:57:54;;;;;;;11.07;9.80;;;;;;;18.77;86.25;100665.71;1678188;83;21651;-71
2021/07/11 03:00:22;;;;;;;11.30;9.27;;;;;;;18.83;85.76;100667.19;1683992;83;21442;-73
2021/07/11 03:02:48;;;;;;;12.23;10.47;;;;;;;18.87;85.19;100666.02;1671664;83;21210;-73
2021/07/11 03:05:23;;;;;;;11.03;9.80;;;;;;;18.90;84.74;100667.54;1686511;83;21059;-72
2021/07/11 03:07:52;;;;;;;11.80;10.60;;;;;;;18.99;84.41;100673.01;1651776;85;21224;-73
2021/07/11 03:10:19;;;;;;;12.27;10.70;;;;;;;19.09;84.17;100672.74;1694457;83;21571;-72
2021/07/11 03:12:49;;;;;;;11.30;10.13;;;;;;;19.20;83.91;100669.20;1685484;83;21529;-72
2021/07/11 03:15:21;;;;;;;11.20;10.10;;;;;;;19.32;83.67;100668.63;1668320;83;21078;-72
2021/07/11 03:17:49;;;;;;;12.23;10.27;;;;;;;19.42;83.35;100675.11;1651395;83;21102;-72
2021/07/11 03:20:20;;;;;;;11.67;10.47;;;;;;;19.58;83.31;100674.13;1687474;83;21101;-73
2021/07/11 03:22:46;;;;;;;12.87;11.03;;;;;;;19.73;83.53;100676.98;1686334;83;21518;-72
2021/07/11 03:25:14;;;;;;;11.57;10.37;;;;;;;19.87;83.67;100673.03;1684398;83;21070;-72
2021/07/11 03:27:41;;;;;;;11.50;10.40;;;;;;;20.03;83.48;100678.77;1685185;83;21074;-72
2021/07/11 03:30:12;;;;;;;12.20;10.00;;;;;;;20.17;82.98;100671.88;1689275;83;21518;-73
2021/07/11 03:32:59;;;;;;;11.30;9.97;;;;;;;20.32;82.41;100676.00;1631683;85;21092;-71
2021/07/11 03:35:43;;;;;;;11.57;9.90;;;;;;;20.45;81.59;100675.61;1622304;86;21150;-73
2021/07/11 03:38:17;;;;;;;11.50;10.40;;;;;;;20.59;81.08;100672.18;1675373;84;21551;-72
2021/07/11 03:40:45;;;;;;;11.53;10.17;;;;;;;20.75;80.73;100667.84;1682140;84;21094;-72
2021/07/11 03:43:15;;;;;;;12.10;10.10;;;;;;;20.90;80.14;100669.83;1675861;83;21019;-73
2021/07/11 03:45:45;;;;;;;12.67;10.20;;;;;;;21.03;79.37;100671.55;1685468;83;21571;-73
2021/07/11 03:48:23;;;;;;;11.17;10.07;;;;;;;21.17;78.80;100669.97;1689513;83;20991;-73
2021/07/11 03:50:54;;;;;;;11.30;10.13;;;;;;;21.29;78.36;100664.66;1690649;83;21047;-73
2021/07/11 03:53:26;;;;;;;10.93;9.83;;;;;;;21.43;78.02;100664.45;1657746;85;21060;-73
2021/07/11 03:55:53;;;;;;;13.75;11.65;;;;;;;21.57;77.98;100666.38;1646657;85;21480;-73
2021/07/11 03:58:21;;;;;;;13.57;12.07;;;;;;;21.71;78.53;100668.28;1685615;83;21146;-73
2021/07/11 04:00:49;;;;;;;13.17;11.87;;;;;;;21.84;79.02;100669.73;1687101;83;21050;-73
2021/07/11 04:03:17;;;;;;;15.60;12.10;;;;;;;21.95;79.18;100671.74;1686284;83;21035;-73
2021/07/11 04:05:44;;;;;;;14.73;11.70;;;;;;;22.06;79.23;100665.91;1684158;83;21495;-75
2021/07/11 04:08:16;;;;;;;13.83;11.93;;;;;;;22.16;79.12;100666.33;1686200;83;20963;-74
2021/07/11 04:10:43;;;;;;;12.80;11.50;;;;;;;22.24;78.88;100670.92;1679779;83;21139;-73
2021/07/11 04:13:10;;;;;;;13.10;11.23;;;;;;;22.37;78.47;100665.52;1690978;83;20995;-73
2021/07/11 04:15:37;;;;;;;12.37;11.13;;;;;;;22.46;78.21;100661.58;1691258;83;21074;-72
2021/07/11 04:18:08;;;;;;;12.23;10.97;;;;;;;22.59;77.55;100661.63;1686235;85;21011;-72
2021/07/11 04:20:35;;;;;;;11.90;10.70;;;;;;;22.68;76.59;100660.98;1684697;83;21030;-72
2021/07/11 04:23:01;;;;;;;13.00;10.37;;;;;;;22.77;75.83;100656.80;1645292;85;21114;-72
2021/07/11 04:25:34;;;;;;;12.53;10.77;;;;;;;22.85;75.09;100657.28;1623747;86;21662;-73
2021/07/11 04:28:02;;;;;;;10.70;9.53;;;;;;;22.97;74.74;100655.98;1625771;86;21057;-72
2021/07/11 04:30:29;;;;;;;11.13;9.90;;;;;;;23.07;74.00;100663.71;1667448;83;21011;-74
2021/07/11 04:32:56;;;;;;;10.70;9.60;;;;;;;23.15;73.39;100658.70;1685747;83;21058;-72
2021/07/11 04:35:23;;;;;;;10.63;9.53;;;;;;;23.20;72.52;100659.07;1650371;85;21527;-72
2021/07/11 04:37:50;;;;;;;9.70;8.70;;;;;;;23.29;71.62;100661.09;1671169;84;21179;-72
2021/07/11 04:40:17;;;;;;;10.37;8.63;;;;;;;23.38;70.35;100650.88;1673224;84;21070;-73
2021/07/11 04:42:44;;;;;;;10.53;8.30;;;;;;;23.47;68.87;100657.59;1680804;84;21589;-73
2021/07/11 04:45:11;;;;;;;9.73;8.27;;;;;;;23.55;68.33;100652.58;1686141;83;21506;-73
2021/07/11 04:47:39;;;;;;;9.57;8.67;;;;;;;23.64;67.24;100656.55;1685196;83;21146;-73
2021/07/11 04:50:06;;;;;;;9.90;8.37;;;;;;;23.70;66.60;100650.34;1691469;83;21110;-74
2021/07/11 04:52:33;;;;;;;10.43;8.13;;;;;;;23.82;65.95;100655.20;1689557;83;21207;-73
2021/07/11 04:55:00;;;;;;;10.17;8.73;;;;;;;23.95;65.33;100654.58;1649822;85;21151;-73
2021/07/11 04:57:27;;;;;;;10.43;8.80;;;;;;;24.07;64.92;100653.19;1682454;83;21019;-73
2021/07/11 04:59:54;;;;;;;9.77;8.77;;;;;;;24.19;64.15;100652.38;1688236;83;21100;-73
2021/07/11 05:02:21;;;;;;;9.50;8.50;;;;;;;24.27;64.17;100649.27;1688698;83;21081;-73
2021/07/11 05:04:47;;;;;;;9.57;8.67;;;;;;;24.31;63.16;100646.05;1688253;83;21592;-73
2021/07/11 05:07:16;;;;;;;11.03;9.40;;;;;;;24.30;62.94;100645.84;1684490;83;21118;-73
2021/07/11 05:09:44;;;;;;;10.20;9.20;;;;;;;24.33;62.82;100654.70;1685734;83;21069;-74
2021/07/11 05:12:11;;;;;;;11.07;8.93;;;;;;;24.39;62.75;100647.06;1649076;85;21120;-73
2021/07/11 05:14:38;;;;;;;11.60;9.10;;;;;;;24.49;62.82;100652.05;1676679;84;21078;-73
2021/07/11 05:17:06;;;;;;;9.50;8.50;;;;;;;24.56;62.95;100650.30;1671768;84;20987;-73
2021/07/11 05:19:36;;;;;;;11.07;8.50;;;;;;;24.64;62.85;100651.84;1674377;83;21067;-74
2021/07/11 05:22:04;;;;;;;9.37;7.77;;;;;;;24.70;62.12;100653.97;1673231;84;21013;-74
2021/07/11 05:24:31;;;;;;;10.20;8.30;;;;;;;24.74;61.83;100654.06;1667508;84;21749;-73
2021/07/11 05:26:58;;;;;;;10.93;7.80;;;;;;;24.80;61.52;100655.39;1681973;83;21043;-73
2021/07/11 05:29:25;;;;;;;10.20;7.83;;;;;;;24.87;61.02;100652.84;1685431;83;21047;-75
2021/07/11 05:31:52;;;;;;;9.73;7.87;;;;;;;24.96;60.60;100647.22;1685569;83;21520;-74
2021/07/11 05:34:19;;;;;;;8.77;7.47;;;;;;;25.06;60.08;100648.63;1688687;83;21012;-75
2021/07/11 05:36:45;;;;;;;8.00;7.10;;;;;;;25.18;59.42;100652.68;1686122;83;21182;-73
2021/07/11 05:39:13;;;;;;;8.97;7.40;;;;;;;25.34;59.10;100654.04;1684254;83;21093;-75
2021/07/11 05:41:39;;;;;;;10.40;7.77;;;;;;;25.49;58.70;100654.58;1686028;83;21031;-76
2021/07/11 05:44:06;;;;;;;10.83;7.90;;;;;;;25.63;58.41;100658.20;1691278;83;21073;-73
2021/07/11 05:46:33;;;;;;;8.83;7.50;;;;;;;25.73;58.52;100658.46;1685538;83;21549;-73
2021/07/11 05:49:00;;;;;;;9.93;7.13;;;;;;;25.85;57.91;100663.03;1679135;85;21181;-74
2021/07/11 05:51:26;;;;;;;9.73;7.57;;;;;;;25.96;57.61;100668.73;1681287;82;21137;-72
2021/07/11 05:53:55;;;;;;;9.73;7.07;;;;;;;26.08;57.67;100669.97;1687252;83;21624;-73
2021/07/11 05:56:21;;;;;;;8.27;6.80;;;;;;;26.22;57.17;100666.72;1692157;83;21031;-74
2021/07/11 05:58:48;;;;;;;7.83;6.57;;;;;;;26.36;56.90;100663.50;1690632;83;21046;-74
2021/07/11 06:01:15;;;;;;;9.43;7.03;;;;;;;26.53;55.99;100663.08;1652439;85;21448;-73
2021/07/11 06:03:42;;;;;;;7.53;6.70;;;;;;;26.66;55.96;100663.70;1668584;84;21638;-75
2021/07/11 06:06:09;;;;;;;8.90;6.83;;;;;;;26.77;55.37;100666.63;1675158;84;21143;-73
2021/07/11 06:08:35;;;;;;;8.17;6.67;;;;;;;26.88;54.80;100667.60;1683907;83;21007;-74
2021/07/11 06:11:02;;;;;;;8.07;6.53;;;;;;;27.01;55.33;100659.99;1689141;83;21769;-74
2021/07/11 06:13:30;;;;;;;7.87;7.00;;;;;;;27.10;54.23;100664.66;1688407;83;21143;-73
2021/07/11 06:15:57;;;;;;;9.23;6.67;;;;;;;27.22;55.05;100659.02;1658274;84;21078;-73
2021/07/11 06:18:24;;;;;;;6.70;5.90;;;;;;;27.36;53.83;100652.95;1685605;83;20990;-74
2021/07/11 06:20:51;;;;;;;6.80;5.90;;;;;;;27.46;52.61;100652.91;1682102;83;21098;-75
2021/07/11 06:23:18;;;;;;;5.43;4.83;;;;;;;27.54;50.09;100656.77;1682117;83;21631;-74
2021/07/11 06:25:45;;;;;;;7.43;5.00;;;;;;;27.59;49.25;100654.27;1659847;85;21225;-73
2021/07/11 06:30:34;;;;;;;6.13;4.53;;;;;;;27.78;46.60;100654.18;1789974;79;26471;-74
2021/07/11 06:33:01;;;;;;;6.97;5.20;;;;;;;27.78;45.74;100645.16;1780008;78;21627;-74
2021/07/11 06:35:28;;;;;;;6.90;5.07;;;;;;;27.81;45.14;100643.84;1779976;79;21134;-75
2021/07/11 06:37:55;;;;;;;8.07;4.80;;;;;;;27.85;44.79;100642.51;1801061;77;20978;-74
2021/07/11 06:40:24;;;;;;;6.73;4.77;;;;;;;27.91;45.06;100644.35;1783463;78;21018;-75
2021/07/11 06:42:51;;;;;;;5.17;4.60;;;;;;;27.96;43.63;100643.42;1775761;80;21007;-75
2021/07/11 06:45:17;;;;;;;7.20;4.90;;;;;;;28.04;45.03;100645.70;1774099;79;21216;-74
2021/07/11 06:47:44;;;;;;;5.10;4.60;;;;;;;28.10;44.37;100649.70;1807715;78;21668;-74
2021/07/11 06:50:14;;;;;;;6.10;4.20;;;;;;;28.18;43.71;100647.23;1792400;79;21054;-74
2021/07/11 06:52:41;;;;;;;6.03;4.90;;;;;;;28.23;44.07;100641.41;1795361;78;21525;-74
2021/07/11 06:55:10;;;;;;;5.80;4.90;;;;;;;28.33;46.03;100640.52;1788582;79;21085;-74
2021/07/11 06:57:38;;;;;;;5.37;4.07;;;;;;;28.41;45.40;100642.22;1785143;78;21601;-74
2021/07/11 07:00:08;;;;;;;4.77;3.90;;;;;;;28.49;45.20;100641.90;1790598;78;21174;-74
2021/07/11 07:02:34;;;;;;;7.20;5.17;;;;;;;28.58;43.38;100635.32;1786590;79;21011;-75
2021/07/11 07:05:01;;;;;;;6.20;4.70;;;;;;;28.61;42.07;100631.82;1781279;78;21026;-75
2021/07/11 07:07:28;;;;;;;5.27;4.07;;;;;;;28.60;42.66;100632.41;1789462;78;21059;-75
2021/07/11 07:09:55;;;;;;;6.70;4.37;;;;;;;28.65;43.12;100635.39;1810435;77;21081;-74
2021/07/11 07:12:23;;;;;;;5.13;4.53;;;;;;;28.73;43.62;100628.22;1785343;78;21525;-75
2021/07/11 07:14:50;;;;;;;6.43;4.77;;;;;;;28.82;43.59;100635.34;1770744;80;21042;-74
2021/07/11 07:17:17;;;;;;;6.20;4.67;;;;;;;28.88;42.92;100636.58;1765660;80;21071;-74
2021/07/11 07:19:44;;;;;;;5.77;4.33;;;;;;;28.97;44.26;100645.30;1787006;79;21058;-73
2021/07/11 07:22:11;;;;;;;9.83;4.67;;;;;;;29.06;43.91;100639.52;1785125;79;21534;-74
2021/07/11 07:24:38;;;;;;;5.83;4.23;;;;;;;29.13;44.68;100638.20;1766894;79;21107;-75
2021/07/11 07:27:05;;;;;;;5.40;4.50;;;;;;;29.19;43.32;100635.30;1771591;80;21108;-74
2021/07/11 07:29:31;;;;;;;6.43;4.33;;;;;;;29.30;43.27;100642.24;1770973;79;21014;-75
2021/07/11 07:31:58;;;;;;;6.93;4.40;;;;;;;29.38;41.94;100643.27;1768428;79;21033;-74
2021/07/11 07:34:25;;;;;;;6.47;4.43;;;;;;;29.45;41.30;100639.77;1773853;79;21010;-75
2021/07/11 07:36:53;;;;;;;5.20;4.20;;;;;;;29.53;41.55;100643.38;1766169;79;21180;-75
2021/07/11 07:39:21;;;;;;;6.57;4.60;;;;;;;29.62;42.66;100646.61;1773692;79;21584;-74
2021/07/11 07:41:48;;;;;;;5.03;4.40;;;;;;;29.67;40.97;100645.64;1758749;81;21637;-74
2021/07/11 07:44:14;;;;;;;7.87;7.10;;;;;;;29.72;40.61;100641.75;1761427;79;21054;-75
2021/07/11 07:46:41;;;;;;;6.23;5.63;;;;;;;29.72;40.75;100640.96;1761264;79;21549;-74
2021/07/11 07:49:08;;;;;;;4.70;4.20;;;;;;;29.76;40.64;100637.04;1774076;79;21185;-74
2021/07/11 07:51:35;;;;;;;5.23;3.60;;;;;;;29.84;40.12;100630.97;1763609;79;21553;-74
2021/07/11 07:54:01;;;;;;;6.27;4.30;;;;;;;29.92;39.46;100636.73;1772268;79;21014;-74
2021/07/11 07:56:28;;;;;;;5.05;4.28;;;;;;;29.94;38.56;100631.60;1792795;79;21133;-74
2021/07/11 07:58:55;;;;;;;5.57;3.80;;;;;;;30.01;39.67;100630.84;1758297;80;21181;-74
2021/07/11 08:01:23;;;;;;;4.55;3.55;;;;;;;30.07;38.55;100631.45;1788576;78;21118;-73
2021/07/11 08:03:54;;;;;;;5.62;3.52;;;;;;;30.11;37.39;100629.52;1764875;79;21011;-74
2021/07/11 08:06:21;;;;;;;4.90;3.50;;;;;;;30.16;37.12;100622.84;1751734;81;21293;-74
2021/07/11 08:08:49;;;;;;;4.65;4.10;;;;;;;30.25;38.06;100630.77;1756827;80;21019;-74
2021/07/11 08:11:17;;;;;;;5.72;3.83;;;;;;;30.30;37.67;100619.36;1756980;78;21124;-80
2021/07/11 08:13:44;;;;;;;4.60;3.58;;;;;;;30.37;36.63;100624.31;1739770;81;21124;-75
2021/07/11 08:16:10;;;;;;;4.60;4.00;;;;;;;30.45;37.52;100627.08;1782305;78;21553;-74
2021/07/11 08:18:39;;;;;;;4.92;3.30;;;;;;;30.54;36.90;100621.39;1766560;79;21237;-74
2021/07/11 08:21:05;;;;;;;5.72;3.50;;;;;;;30.67;36.24;100626.50;1777818;79;21026;-75
2021/07/11 08:23:32;;;;;;;4.67;3.10;;;;;;;30.70;36.09;100621.02;1766485;79;21685;-76
2021/07/11 08:25:59;;;;;;;5.12;3.50;;;;;;;30.80;36.76;100622.20;1764666;81;21515;-74
2021/07/11 08:28:26;;;;;;;4.37;3.22;;;;;;;30.89;35.95;100617.69;1767708;79;21123;-73
2021/07/11 08:30:52;;;;;;;5.17;3.00;;;;;;;30.92;34.75;100607.25;1768240;79;21082;-75
2021/07/11 08:33:41;;;;;;;5.08;3.12;;;;;;;30.96;35.56;100613.54;1765740;79;21050;-74
2021/07/11 08:36:08;;;;;;;4.53;3.20;;;;;;;31.05;36.54;100611.96;1747569;81;21102;-75
2021/07/11 08:38:35;;;;;;;3.85;3.20;;;;;;;31.20;35.92;100608.61;1747302;80;21805;-76
2021/07/11 08:41:01;;;;;;;5.30;2.83;;;;;;;31.29;35.26;100610.37;1714094;82;21056;-74
2021/07/11 08:43:29;;;;;;;4.47;3.25;;;;;;;31.33;33.66;100601.30;1743981;80;21089;-75
2021/07/11 08:45:57;;;;;;;3.80;2.77;;;;;;;31.33;33.91;100600.73;1747066;81;21022;-76
2021/07/11 08:48:23;;;;;;;4.92;3.50;;;;;;;31.42;35.90;100599.70;1745496;80;21015;-74
2021/07/11 08:50:50;;;;;;;4.65;3.47;;;;;;;31.56;34.59;100602.22;1746289;80;21086;-75
2021/07/11 08:53:16;;;;;;;4.10;3.22;;;;;;;31.67;33.74;100602.98;1743987;80;21118;-75
2021/07/11 08:55:43;;;;;;;5.40;3.20;;;;;;;31.71;34.09;100600.40;1746754;82;21141;-74
2021/07/11 08:58:10;;;;;;;4.33;3.20;;;;;;;31.72;32.64;100603.94;1743208;80;21026;-75
2021/07/11 09:00:38;;;;;;;5.65;3.40;;;;;;;31.68;35.02;100605.94;1746284;80;21042;-74
2021/07/11 09:03:07;;;;;;;4.97;3.80;;;;;;;31.70;34.56;100604.95;1741342;80;22004;-74
2021/07/11 09:05:41;;;;;;;6.27;3.37;;;;;;;31.68;34.30;100610.86;1746487;82;21441;-75
2021/07/11 09:08:23;;;;;;;3.95;3.30;;;;;;;31.58;34.40;100604.00;1748272;80;21090;-75
2021/07/11 09:10:55;;;;;;;;;;;;;;;31.45;33.56;100599.50;1747452;80;21081;-74
2021/07/11 09:13:25;;;;;;;4.62;3.50;;;;;;;31.46;34.62;100604.64;1740541;80;20240;-75
2021/07/11 09:15:57;;;;;;;5.65;3.30;;;;;;;31.60;34.81;100601.05;1742437;80;21081;-74
2021/07/11 09:18:32;;;;;;;4.00;3.12;;;;;;;31.76;35.22;100599.22;1743446;80;21070;-75
2021/07/11 09:21:07;;;;;;;4.37;3.35;;;;;;;31.91;33.57;100595.21;1744253;80;21518;-74
2021/07/11 09:23:36;;;;;;;4.50;3.58;;;;;;;31.96;34.71;100593.42;1740782;81;21073;-75
2021/07/11 09:26:08;;;;;;;3.77;3.25;;;;;;;32.02;33.18;100597.13;1750640;80;21153;-76
2021/07/11 09:28:37;;;;;;;4.60;3.58;;;;;;;32.04;33.37;100596.14;1746565;80;21135;-76
2021/07/11 09:31:09;;;;;;;3.95;2.95;;;;;;;32.13;32.26;100586.83;1742621;80;21082;-75
2021/07/11 09:33:40;;;;;;;5.00;3.27;;;;;;;32.24;32.83;100587.53;1739316;80;21023;-74
2021/07/11 09:36:18;;;;;;;7.15;3.20;;;;;;;32.36;33.00;100590.43;1743478;81;21502;-75
2021/07/11 09:38:54;;;;;;;6.17;3.62;;;;;;;32.46;32.17;100586.23;1738371;81;21102;-75
2021/07/11 09:41:27;;;;;;;4.20;3.55;;;;;;;32.53;32.23;100588.76;1741713;80;21093;-77
2021/07/11 09:43:57;;;;;;;4.33;3.30;;;;;;;32.52;33.44;100585.21;1743416;80;20979;-75
2021/07/11 09:46:25;;;;;;;;;;;;;;;32.52;32.97;100578.30;1751199;80;21094;-74
2021/07/11 09:48:56;;;;;;;4.70;3.27;;;;;;;32.53;31.89;100585.39;1743872;82;20198;-75
2021/07/11 09:51:25;;;;;;;5.70;3.72;;;;;;;32.45;31.37;100583.89;1741682;80;21046;-74
2021/07/11 09:53:53;;;;;;;5.05;3.22;;;;;;;32.38;31.32;100585.27;1736192;81;21490;-75
2021/07/11 09:56:40;;;;;;;4.62;3.30;;;;;;;32.32;31.45;100573.88;1739593;80;21063;-74
2021/07/11 09:59:10;;;;;;;4.70;3.12;;;;;;;32.43;32.02;100579.34;1745256;82;21129;-74
2021/07/11 10:01:40;;;;;;;4.05;3.45;;;;;;;32.65;31.81;100576.61;1750158;80;21042;-73
2021/07/11 10:04:07;;;;;;;5.00;3.20;;;;;;;32.76;30.87;100575.73;1747350;80;21514;-74
2021/07/11 10:06:35;;;;;;;8.45;3.47;;;;;;;32.72;31.64;100568.07;1742563;80;21101;-75
2021/07/11 10:09:05;;;;;;;5.87;3.27;;;;;;;32.71;31.22;100567.29;1750014;81;21177;-73
2021/07/11 10:11:33;;;;;;;5.67;3.40;;;;;;;32.66;31.64;100567.72;1746976;80;21622;-76
2021/07/11 10:13:59;;;;;;;4.45;3.20;;;;;;;32.65;32.69;100574.45;1740285;80;20972;-75
2021/07/11 10:16:27;;;;;;;4.00;3.20;;;;;;;32.74;31.50;100567.05;1740066;80;21050;-74
2021/07/11 10:18:57;;;;;;;5.03;3.30;;;;;;;32.81;30.35;100567.79;1747165;81;21112;-75
2021/07/11 10:21:33;;;;;;;4.60;3.20;;;;;;;32.79;29.76;100560.48;1742785;79;20951;-75
2021/07/11 10:24:00;;;;;;;6.70;3.45;;;;;;;32.79;30.83;100568.00;1737639;80;21096;-76
2021/07/11 10:26:40;;;;;;;4.20;3.30;;;;;;;32.85;30.18;100563.00;1733104;80;20986;-75
2021/07/11 10:29:18;;;;;;;4.50;3.55;;;;;;;32.97;31.05;100561.72;1712645;83;21065;-75
2021/07/11 10:31:50;;;;;;;4.97;3.55;;;;;;;33.12;31.20;100562.37;1702819;82;21958;-75
2021/07/11 10:34:28;;;;;;;;;;;;;;;33.24;29.32;100560.47;1706155;82;21035;-76
2021/07/11 10:36:56;;;;;;;4.70;3.37;;;;;;;33.27;29.48;100569.91;1744027;80;20502;-76
2021/07/11 10:39:32;;;;;;;3.95;3.00;;;;;;;33.23;29.50;100557.50;1745477;81;21050;-75
2021/07/11 10:41:59;;;;;;;5.40;3.20;;;;;;;33.30;29.54;100557.44;1720319;80;21634;-75
2021/07/11 10:44:27;;;;;;;5.72;3.33;;;;;;;33.29;29.32;100548.16;1741053;80;21627;-75
2021/07/11 10:46:58;;;;;;;4.42;3.40;;;;;;;33.18;29.75;100557.97;1743552;80;21069;-76
2021/07/11 10:49:37;;;;;;;4.12;3.37;;;;;;;33.12;30.04;100559.61;1745484;81;21018;-76
2021/07/11 10:52:07;;;;;;;4.00;3.58;;;;;;;33.16;29.46;100556.98;1720066;82;20995;-76
2021/07/11 10:54:51;;;;;;;3.60;3.30;;;;;;;33.19;28.10;100562.30;1742821;81;21023;-76
2021/07/11 10:57:38;;;;;;;5.10;3.70;;;;;;;33.13;28.95;100551.48;1742025;80;21136;-76
2021/07/11 11:00:16;;;;;;;4.50;3.30;;;;;;;33.13;28.95;100551.48;1748056;81;21019;-75
2021/07/11 11:02:45;;;;;;;3.85;3.20;;;;;;;33.14;31.67;100552.47;1748183;80;21098;-77
2021/07/11 11:05:23;;;;;;;4.27;3.57;;;;;;;33.21;32.01;100551.61;1740200;81;21836;-75
2021/07/11 11:07:55;;;;;;;4.62;3.50;;;;;;;33.40;31.35;100547.45;1745268;80;21714;-75
2021/07/11 11:10:31;;;;;;;4.80;3.25;;;;;;;33.40;31.35;100547.45;1743077;81;21100;-74
2021/07/11 11:13:06;;;;;;;3.85;2.87;;;;;;;33.47;30.12;100550.73;1739259;80;21572;-75
2021/07/11 11:15:55;;;;;;;5.33;3.67;;;;;;;33.45;29.79;100546.97;1739692;80;21005;-74
2021/07/11 11:18:33;;;;;;;6.90;3.33;;;;;;;33.37;30.08;100551.82;1746371;80;21082;-75
2021/07/11 11:21:14;;;;;;;5.30;3.50;;;;;;;33.35;30.66;100547.89;1746066;80;21088;-75
2021/07/11 11:23:47;;;;;;;5.85;3.40;;;;;;;33.30;30.09;100545.56;1738644;80;21081;-76
2021/07/11 11:26:26;;;;;;;4.12;3.12;;;;;;;33.19;31.28;100540.15;1744361;80;26297;-76
2021/07/11 11:28:56;;;;;;;4.55;3.40;;;;;;;33.20;30.98;100536.17;1748422;80;20999;-75
2021/07/11 11:31:32;;;;;;;5.20;3.65;;;;;;;33.28;30.91;100541.05;1747818;81;21471;-74